Time;durP1;ratioP1;P1;durP2;ratioP2;P2;SDS_P1;SDS_P2;PMS_P1;PMS_P2;Temp;Humidity;BMP_temperature;BMP_pressure;BME280_temperature;BME280_humidity;BME280_pressure;Samples;Min_cycle;Max_cycle;Signal;HPM_P1;HPM_P2
2024/02/24 00:01:54;;;;;;;;;;;;;;;9.81;74.57;99341.28;4878897;29;19916;-80
2024/02/24 00:04:46;;;;;;;;;;;;;;;9.90;74.13;99348.50;4870471;29;19919;-80
2024/02/24 00:07:38;;;;;;;;;;;;;;;9.82;73.97;99363.78;4881685;29;20306;-80
2024/02/24 00:10:30;;;;;;;;;;;;;;;9.77;73.44;99364.81;4871403;29;19916;-79
2024/02/24 00:13:22;;;;;;;;;;;;;;;9.84;72.39;99370.47;4869519;29;20385;-79
2024/02/24 00:16:14;;;;;;;;;;;;;;;9.78;72.08;99371.03;4881330;29;19924;-79
2024/02/24 00:19:05;;;;;;;;;;;;;;;9.70;72.37;99374.69;4864782;29;19919;-80
2024/02/24 00:21:57;;;;;;;;;;;;;;;9.62;72.24;99367.44;4867343;29;19920;-79
2024/02/24 00:24:49;;;;;;;;;;;;;;;9.45;72.24;99368.47;4880487;29;19923;-79
2024/02/24 00:27:41;;;;;;;;;;;;;;;9.44;71.82;99373.13;4883389;29;20310;-79
2024/02/24 00:30:33;;;;;;;;;;;;;;;9.46;71.10;99364.63;4867866;29;20378;-79
2024/02/24 00:33:25;;;;;;;;;;;;;;;9.51;70.20;99366.31;4884821;29;19915;-80
2024/02/24 00:36:14;;;;;;;;;;;;;;;9.53;69.50;99370.28;4866541;29;19919;-79
2024/02/24 00:39:06;;;;;;;;;;;;;;;9.48;68.86;99369.72;4880018;29;19920;-79
2024/02/24 00:41:56;;;;;;;;;;;;;;;9.42;68.39;99372.66;4880920;29;20301;-80
2024/02/24 00:44:48;;;;;;;;;;;;;;;9.33;68.74;99372.00;4882143;29;19919;-78
2024/02/24 00:47:40;;;;;;;;;;;;;;;9.31;68.64;99363.41;4879863;29;20382;-79
2024/02/24 00:50:32;;;;;;;;;;;;;;;9.33;68.48;99371.19;4883213;29;20309;-80
2024/02/24 00:53:24;;;;;;;;;;;;;;;9.33;67.90;99371.19;4881473;29;19915;-78
2024/02/24 00:56:16;;;;;;;;;;;;;;;9.25;67.79;99370.16;4870820;29;19920;-80
2024/02/24 00:59:08;;;;;;;;;;;;;;;9.25;67.74;99380.22;4882053;29;19919;-80
2024/02/24 01:02:00;;;;;;;;;;;;;;;9.29;67.45;99398.22;4866506;29;19920;-79
2024/02/24 01:04:52;;;;;;;;;;;;;;;9.20;66.30;99411.09;4869566;29;19920;-79
2024/02/24 01:07:44;;;;;;;;;;;;;;;9.15;67.04;99413.22;4868236;29;19916;-79
2024/02/24 01:10:39;;;;;;;;;;;;;;;8.99;67.36;99416.59;4884000;29;20299;-80
2024/02/24 01:13:26;;;;;;;;;;;;;;;8.93;67.85;99412.53;4883059;29;19920;-79
2024/02/24 01:16:18;;;;;;;;;;;;;;;8.88;67.81;99409.25;4881126;29;19927;-80
2024/02/24 01:19:10;;;;;;;;;;;;;;;8.86;68.78;99415.00;4883296;29;20460;-79
2024/02/24 01:21:59;;;;;;;;;;;;;;;8.97;68.46;99410.72;4855069;29;19923;-78
2024/02/24 01:24:51;;;;;;;;;;;;;;;8.95;68.37;99426.53;4861631;29;19916;-79
2024/02/24 01:27:43;;;;;;;;;;;;;;;8.83;68.18;99431.13;4864486;29;19916;-78
2024/02/24 01:30:36;;;;;;;;;;;;;;;8.66;68.83;99429.38;4862959;29;19919;-79
2024/02/24 01:33:28;;;;;;;;;;;;;;;8.64;69.70;99430.84;4860974;29;19924;-80
2024/02/24 01:36:23;;;;;;;;;;;;;;;8.77;68.74;99427.06;4853421;29;19919;-81
2024/02/24 01:39:16;;;;;;;;;;;;;;;8.78;68.71;99420.50;4878901;29;20305;-79
2024/02/24 01:42:08;;;;;;;;;;;;;;;8.76;68.84;99422.75;4874262;29;19915;-80
2024/02/24 01:45:00;;;;;;;;;;;;;;;8.64;67.80;99428.13;4875254;29;19916;-78
2024/02/24 01:47:52;;;;;;;;;;;;;;;8.54;67.94;99423.91;4871794;29;19916;-78
2024/02/24 01:50:43;;;;;;;;;;;;;;;8.58;68.58;99438.41;4863412;29;20386;-79
2024/02/24 01:53:35;;;;;;;;;;;;;;;8.66;68.76;99434.81;4862096;29;20583;-79
2024/02/24 01:56:26;;;;;;;;;;;;;;;8.62;68.50;99433.09;4865467;29;19927;-80
2024/02/24 01:59:17;;;;;;;;;;;;;;;8.56;68.63;99438.72;4852969;29;19920;-79
2024/02/24 02:02:09;;;;;;;;;;;;;;;8.48;67.85;99444.22;4860415;29;19916;-78
2024/02/24 02:05:02;;;;;;;;;;;;;;;8.39;68.38;99447.00;4844517;29;19920;-79
2024/02/24 02:07:54;;;;;;;;;;;;;;;8.43;68.00;99447.91;4849389;29;19920;-78
2024/02/24 02:10:55;;;;;;;;;;;;;;;8.15;69.56;99446.84;4860878;29;20322;-80
2024/02/24 02:13:47;;;;;;;;;;;;;;;8.06;69.55;99446.13;4850018;29;19916;-79
2024/02/24 02:16:39;;;;;;;;;;;;;;;8.20;68.99;99446.66;4861528;29;19924;-79
2024/02/24 02:19:31;;;;;;;;;;;;;;;8.25;69.29;99440.22;4864949;29;19916;-79
2024/02/24 02:22:24;;;;;;;;;;;;;;;8.24;68.73;99439.44;4849474;29;19916;-80
2024/02/24 02:25:16;;;;;;;;;;;;;;;8.11;68.96;99440.50;4834905;29;19920;-79
2024/02/24 02:28:08;;;;;;;;;;;;;;;8.13;68.25;99443.66;4858330;29;19920;-79
2024/02/24 02:31:00;;;;;;;;;;;;;;;8.02;68.52;99456.03;4841766;29;19916;-79
2024/02/24 02:33:52;;;;;;;;;;;;;;;8.03;68.68;99452.16;4851453;29;19919;-79
2024/02/24 02:36:44;;;;;;;;;;;;;;;7.94;69.80;99460.34;4863686;29;19924;-78
2024/02/24 02:39:33;;;;;;;;;;;;;;;7.90;69.80;99461.34;4863416;29;19916;-80
2024/02/24 02:42:25;;;;;;;;;;;;;;;7.80;70.39;99456.31;4865924;29;19916;-79
2024/02/24 02:45:14;;;;;;;;;;;;;;;7.64;71.09;99458.78;4862452;29;19920;-79
2024/02/24 02:48:06;;;;;;;;;;;;;;;7.58;71.53;99454.66;4846542;29;19916;-80
2024/02/24 02:50:58;;;;;;;;;;;;;;;7.54;71.17;99459.94;4849335;29;19971;-79
2024/02/24 02:53:50;;;;;;;;;;;;;;;7.53;71.42;99455.66;4851945;29;19916;-79
2024/02/24 02:56:42;;;;;;;;;;;;;;;7.55;71.49;99458.03;4845988;29;20542;-80
2024/02/24 02:59:35;;;;;;;;;;;;;;;7.51;70.84;99449.78;4849448;29;20294;-79
2024/02/24 03:02:27;;;;;;;;;;;;;;;7.59;70.91;99451.66;4860890;29;20605;-79
2024/02/24 03:05:19;;;;;;;;;;;;;;;7.48;70.96;99453.13;4865772;29;19924;-80
2024/02/24 03:08:11;;;;;;;;;;;;;;;7.57;71.38;99456.56;4848425;29;19924;-79
2024/02/24 03:11:04;;;;;;;;;;;;;;;7.74;71.13;99469.22;4862621;29;19919;-78
2024/02/24 03:13:56;;;;;;;;;;;;;;;7.70;70.13;99474.50;4863400;29;20406;-79
2024/02/24 03:16:48;;;;;;;;;;;;;;;7.71;69.31;99480.72;4861283;29;19924;-78
2024/02/24 03:19:40;;;;;;;;;;;;;;;7.58;70.91;99485.22;4859518;29;19916;-79
2024/02/24 03:22:32;;;;;;;;;;;;;;;7.73;70.95;99481.16;4848764;29;19916;-79
2024/02/24 03:25:22;;;;;;;;;;;;;;;7.78;69.46;99485.59;4860622;29;19916;-78
2024/02/24 03:28:14;;;;;;;;;;;;;;;7.74;69.39;99480.84;4863721;29;19920;-78
2024/02/24 03:31:06;;;;;;;;;;;;;;;7.61;69.59;99505.44;4848215;29;19920;-78
2024/02/24 03:33:58;;;;;;;;;;;;;;;7.72;69.73;99499.31;4859824;29;19920;-79
2024/02/24 03:36:50;;;;;;;;;;;;;;;7.77;69.30;99500.28;4862903;29;19920;-79
2024/02/24 03:39:42;;;;;;;;;;;;;;;7.79;69.26;99503.44;4861335;29;19916;-78
2024/02/24 03:42:34;;;;;;;;;;;;;;;7.71;69.24;99515.91;4845594;29;20294;-79
2024/02/24 03:45:23;;;;;;;;;;;;;;;7.63;69.65;99533.72;4851071;29;19915;-79
2024/02/24 03:48:15;;;;;;;;;;;;;;;7.48;70.23;99528.06;4850972;29;19916;-78
2024/02/24 03:51:07;;;;;;;;;;;;;;;7.27;71.19;99536.06;4848271;29;19916;-79
2024/02/24 03:53:59;;;;;;;;;;;;;;;7.28;70.92;99532.25;4848294;29;19920;-79
2024/02/24 03:56:51;;;;;;;;;;;;;;;7.27;71.88;99527.97;4860071;29;19950;-79
2024/02/24 03:59:42;;;;;;;;;;;;;;;7.24;71.53;99537.53;4849215;29;19916;-78
2024/02/24 04:02:34;;;;;;;;;;;;;;;7.22;71.79;99547.84;4847165;29;19938;-78
2024/02/24 04:05:26;;;;;;;;;;;;;;;7.27;70.81;99547.69;4845471;29;19939;-78
2024/02/24 04:08:18;;;;;;;;;;;;;;;7.36;70.90;99550.38;4862374;29;19920;-79
2024/02/24 04:11:10;;;;;;;;;;;;;;;7.20;71.91;99552.00;4846606;29;20378;-78
2024/02/24 04:14:02;;;;;;;;;;;;;;;7.18;71.30;99559.63;4882961;29;19920;-78
2024/02/24 04:16:54;;;;;;;;;;;;;;;7.19;70.74;99556.63;4883738;29;19920;-79
2024/02/24 04:19:45;;;;;;;;;;;;;;;7.25;70.38;99551.84;4873352;29;19920;-79
2024/02/24 04:22:37;;;;;;;;;;;;;;;7.27;71.25;99552.28;4871521;29;19919;-79
2024/02/24 04:25:29;;;;;;;;;;;;;;;7.29;70.99;99563.59;4883128;29;19919;-79
2024/02/24 04:28:22;;;;;;;;;;;;;;;7.30;71.15;99578.72;4880996;29;19915;-79
2024/02/24 04:31:13;;;;;;;;;;;;;;;7.33;70.39;99580.75;4883168;29;20002;-79
2024/02/24 04:34:05;;;;;;;;;;;;;;;7.29;71.14;99574.41;4866640;29;19921;-78
2024/02/24 04:36:57;;;;;;;;;;;;;;;7.30;70.51;99573.31;4860215;29;19924;-79
2024/02/24 04:39:52;;;;;;;;;;;;;;;7.28;71.15;99589.84;4871844;29;19916;-79
2024/02/24 04:42:44;;;;;;;;;;;;;;;7.27;71.74;99590.94;4849376;29;19916;-79
2024/02/24 04:45:36;;;;;;;;;;;;;;;7.33;72.15;99591.56;4852422;29;19916;-79
2024/02/24 04:48:28;;;;;;;;;;;;;;;7.32;72.03;99598.09;4863556;29;20375;-79
2024/02/24 04:51:20;;;;;;;;;;;;;;;7.22;72.44;99593.81;4846815;29;19920;-78
2024/02/24 04:54:12;;;;;;;;;;;;;;;7.20;73.50;99595.25;4860124;29;19916;-78
2024/02/24 04:57:05;;;;;;;;;;;;;;;7.10;74.60;99607.19;4849029;29;19919;-79
2024/02/24 04:59:57;;;;;;;;;;;;;;;7.10;74.69;99618.00;4865852;29;20298;-79
2024/02/24 05:02:49;;;;;;;;;;;;;;;6.98;72.88;99622.44;4863351;29;19916;-80
2024/02/24 05:05:41;;;;;;;;;;;;;;;6.92;72.97;99627.22;4848565;29;19920;-78
2024/02/24 05:08:33;;;;;;;;;;;;;;;6.95;72.79;99623.09;4865012;29;20385;-79
2024/02/24 05:11:25;;;;;;;;;;;;;;;6.80;72.96;99629.78;4849665;29;19916;-78
2024/02/24 05:14:18;;;;;;;;;;;;;;;6.72;73.59;99628.63;4861120;29;20397;-78
2024/02/24 05:17:10;;;;;;;;;;;;;;;6.62;75.01;99638.94;4850813;29;19920;-79
2024/02/24 05:20:03;;;;;;;;;;;;;;;6.48;75.93;99639.09;4849263;29;19916;-79
2024/02/24 05:22:55;;;;;;;;;;;;;;;6.34;76.37;99651.91;4858647;29;19916;-78
2024/02/24 05:25:47;;;;;;;;;;;;;;;6.30;76.54;99650.91;4863445;29;19920;-78
2024/02/24 05:28:39;;;;;;;;;;;;;;;6.34;76.46;99660.81;4861450;29;19924;-79
2024/02/24 05:31:31;;;;;;;;;;;;;;;6.41;74.65;99660.34;4849022;29;19916;-78
2024/02/24 05:34:23;;;;;;;;;;;;;;;6.46;74.28;99668.28;4860017;29;19916;-79
2024/02/24 05:37:15;;;;;;;;;;;;;;;6.54;74.33;99672.94;4852799;29;19919;-78
2024/02/24 05:40:07;;;;;;;;;;;;;;;6.49;73.24;99672.28;4854020;29;19924;-79
2024/02/24 05:42:59;;;;;;;;;;;;;;;6.49;73.84;99672.28;4855675;29;20378;-79
2024/02/24 05:45:51;;;;;;;;;;;;;;;6.56;74.07;99684.22;4851496;29;19916;-79
2024/02/24 05:48:43;;;;;;;;;;;;;;;6.64;74.49;99675.34;4862797;29;19915;-78
2024/02/24 05:51:35;;;;;;;;;;;;;;;6.69;75.50;99683.31;4858417;29;19916;-78
2024/02/24 05:54:25;;;;;;;;;;;;;;;6.75;75.38;99692.06;4850599;29;19920;-78
2024/02/24 05:57:17;;;;;;;;;;;;;;;6.81;75.29;99694.28;4862074;29;19920;-78
2024/02/24 06:00:10;;;;;;;;;;;;;;;6.73;75.93;99695.06;4846515;29;20718;-78
2024/02/24 06:03:07;;;;;;;;;;;;;;;6.70;77.21;99692.22;4863224;29;20374;-78
2024/02/24 06:05:59;;;;;;;;;;;;;;;6.58;78.93;99697.41;4847724;29;20394;-79
2024/02/24 06:08:51;;;;;;;;;;;;;;;6.59;79.66;99709.81;4850567;29;19916;-78
2024/02/24 06:11:42;;;;;;;;;;;;;;;6.73;80.06;99711.28;4862001;29;19916;-79
2024/02/24 06:14:32;;;;;;;;;;;;;;;6.00;83.49;99707.31;4854369;29;20382;-79
2024/02/24 06:17:23;;;;;;;;;;;;;;;5.89;87.48;99707.91;4863701;29;20383;-78
2024/02/24 06:20:15;;;;;;;;;;;;;;;5.98;89.33;99716.84;4851608;29;19946;-78
2024/02/24 06:23:07;;;;;;;;;;;;;;;5.98;89.63;99720.34;4846409;29;20310;-79
2024/02/24 06:25:59;;;;;;;;;;;;;;;5.73;89.69;99729.03;4842685;29;19923;-79
2024/02/24 06:28:51;;;;;;;;;;;;;;;5.89;91.49;99734.88;4846703;29;19916;-78
2024/02/24 06:31:43;;;;;;;;;;;;;;;6.01;90.92;99748.59;4861135;29;19915;-79
2024/02/24 06:34:35;;;;;;;;;;;;;;;6.18;91.34;99753.31;4862368;29;19916;-79
2024/02/24 06:37:24;;;;;;;;;;;;;;;6.27;90.84;99756.84;4844228;29;19920;-79
2024/02/24 06:40:16;;;;;;;;;;;;;;;6.46;89.53;99765.50;4856715;29;19917;-79
2024/02/24 06:43:09;;;;;;;;;;;;;;;6.56;88.03;99770.63;4842017;29;19920;-78
2024/02/24 06:45:58;;;;;;;;;;;;;;;6.67;86.67;99777.34;4852211;29;19920;-80
2024/02/24 06:48:48;;;;;;;;;;;;;;;6.27;87.78;99783.84;4863162;29;19915;-79
2024/02/24 06:51:39;;;;;;;;;;;;;;;6.25;89.85;99786.03;4861148;29;19920;-79
2024/02/24 06:54:31;;;;;;;;;;;;;;;6.68;88.36;99792.47;4864340;29;19916;-79
2024/02/24 06:57:23;;;;;;;;;;;;;;;6.32;89.17;99798.00;4848050;29;20394;-78
2024/02/24 07:00:15;;;;;;;;;;;;;;;6.38;90.01;99798.66;4860487;29;20793;-79
2024/02/24 07:03:05;;;;;;;;;;;;;;;6.59;90.22;99804.34;4847033;29;20298;-78
2024/02/24 07:05:57;;;;;;;;;;;;;;;6.87;89.69;99803.81;4847788;29;19916;-79
2024/02/24 07:08:46;;;;;;;;;;;;;;;7.16;89.41;99794.38;4859185;29;19920;-78
2024/02/24 07:11:38;;;;;;;;;;;;;;;6.70;90.04;99800.25;4847151;29;19924;-79
2024/02/24 07:14:27;;;;;;;;;;;;;;;6.92;90.72;99800.16;4847190;29;19916;-79
2024/02/24 07:17:19;;;;;;;;;;;;;;;7.34;89.77;99814.91;4850394;29;19957;-78
2024/02/24 07:20:10;;;;;;;;;;;;;;;7.58;88.30;99817.97;4862317;29;19919;-79
2024/02/24 07:23:02;;;;;;;;;;;;;;;7.69;86.33;99819.25;4846807;29;19920;-79
2024/02/24 07:25:53;;;;;;;;;;;;;;;7.89;84.47;99827.84;4849807;29;19916;-78
2024/02/24 07:28:43;;;;;;;;;;;;;;;8.05;84.45;99826.25;4865015;29;20317;-79
2024/02/24 07:31:35;;;;;;;;;;;;;;;8.08;82.13;99837.22;4845794;29;20385;-79
2024/02/24 07:34:27;;;;;;;;;;;;;;;8.11;82.78;99835.81;4849462;29;20310;-79
2024/02/24 07:37:19;;;;;;;;;;;;;;;8.16;80.91;99836.44;4860634;29;19919;-78
2024/02/24 07:40:11;;;;;;;;;;;;;;;8.49;79.82;99842.13;4859737;29;19920;-78
2024/02/24 07:43:03;;;;;;;;;;;;;;;8.48;79.15;99845.94;4862328;29;19920;-79
2024/02/24 07:45:55;;;;;;;;;;;;;;;9.17;77.38;99861.19;4860787;29;19920;-79
2024/02/24 07:48:47;;;;;;;;;;;;;;;9.21;75.12;99862.91;4863508;29;19916;-79
2024/02/24 07:51:39;;;;;;;;;;;;;;;9.52;75.49;99859.88;4865465;29;19920;-79
2024/02/24 07:54:31;;;;;;;;;;;;;;;9.53;74.46;99866.09;4865499;29;19920;-79
2024/02/24 07:57:25;;;;;;;;;;;;;;;9.35;74.44;99859.97;4852795;29;19924;-78
2024/02/24 08:00:17;;;;;;;;;;;;;;;9.71;73.84;99871.09;4850729;29;19920;-78
2024/02/24 08:03:09;;;;;;;;;;;;;;;10.20;71.75;99877.63;4849907;29;20557;-79
2024/02/24 08:06:01;;;;;;;;;;;;;;;10.20;69.78;99877.63;4870198;29;19920;-79
2024/02/24 08:08:53;;;;;;;;;;;;;;;10.71;69.72;99886.41;4844116;29;19920;-78
2024/02/24 08:11:45;;;;;;;;;;;;;;;11.43;67.16;99882.16;4863559;29;20398;-79
2024/02/24 08:14:36;;;;;;;;;;;;;;;11.35;67.37;99880.34;4854502;29;19920;-78
2024/02/24 08:17:28;;;;;;;;;;;;;;;11.03;68.07;99888.25;4861995;29;19920;-78
2024/02/24 08:20:20;;;;;;;;;;;;;;;10.48;70.39;99893.34;4863125;29;19916;-78
2024/02/24 08:23:12;;;;;;;;;;;;;;;9.77;73.15;99893.41;4849672;29;20309;-78
2024/02/24 08:26:04;;;;;;;;;;;;;;;9.13;77.45;99899.03;4845176;29;19916;-79
2024/02/24 08:28:56;;;;;;;;;;;;;;;8.94;79.40;99912.16;4860123;29;19916;-78
2024/02/24 08:31:48;;;;;;;;;;;;;;;9.13;79.33;99915.31;4863230;29;20397;-77
2024/02/24 08:34:40;;;;;;;;;;;;;;;9.35;78.40;99912.31;4866381;29;19920;-78
2024/02/24 08:37:31;;;;;;;;;;;;;;;9.49;77.49;99916.75;4864057;29;19916;-78
2024/02/24 08:40:21;;;;;;;;;;;;;;;9.98;76.11;99923.28;4863313;29;20398;-80
2024/02/24 08:43:12;;;;;;;;;;;;;;;10.16;73.26;99919.34;4866155;29;20382;-78
2024/02/24 08:46:02;;;;;;;;;;;;;;;10.76;72.89;99921.53;4867845;29;19920;-78
2024/02/24 08:48:54;;;;;;;;;;;;;;;10.91;71.67;99914.66;4861473;29;20382;-79
2024/02/24 08:51:46;;;;;;;;;;;;;;;11.90;68.82;99915.97;4849363;29;19920;-79
2024/02/24 08:54:38;;;;;;;;;;;;;;;12.11;68.09;99925.91;4858170;29;19921;-79
2024/02/24 08:57:30;;;;;;;;;;;;;;;12.13;66.84;99929.88;4861874;29;20285;-80
2024/02/24 09:00:22;;;;;;;;;;;;;;;12.69;65.79;99932.63;4847240;29;19920;-78
2024/02/24 09:03:14;;;;;;;;;;;;;;;12.73;65.02;99947.97;4858496;29;19920;-77
2024/02/24 09:06:06;;;;;;;;;;;;;;;12.37;65.74;99939.91;4852073;29;19916;-77
2024/02/24 09:08:58;;;;;;;;;;;;;;;12.18;69.04;99932.38;4854801;29;19920;-76
2024/02/24 09:11:48;;;;;;;;;;;;;;;12.97;65.72;99940.78;4857483;29;19928;-78
2024/02/24 09:14:43;;;;;;;;;;;;;;;13.17;64.94;99937.84;4857270;29;19925;-79
2024/02/24 09:17:35;;;;;;;;;;;;;;;12.41;66.25;99936.16;4858362;29;20916;-78
2024/02/24 09:20:27;;;;;;;;;;;;;;;12.20;67.33;99940.19;4856911;29;19916;-80
2024/02/24 09:23:19;;;;;;;;;;;;;;;12.11;68.35;99936.81;4848972;29;19916;-79
2024/02/24 09:26:11;;;;;;;;;;;;;;;12.26;68.33;99945.06;4846082;29;19916;-79
2024/02/24 09:29:03;;;;;;;;;;;;;;;12.28;68.83;99933.81;4841718;29;20383;-78
2024/02/24 09:32:13;;;;;;;;;;;;;;;12.53;67.82;99940.78;4855210;29;19916;-79
2024/02/24 09:35:05;;;;;;;;;;;;;;;12.93;66.80;99939.91;4860606;29;19920;-79
2024/02/24 09:37:57;;;;;;;;;;;;;;;13.07;65.55;99941.06;4863381;29;20297;-79
2024/02/24 09:40:49;;;;;;;;;;;;;;;13.49;65.13;99946.84;4842907;29;19924;-81
2024/02/24 09:43:41;;;;;;;;;;;;;;;13.64;64.20;99945.25;4847948;29;19916;-79
2024/02/24 09:46:34;;;;;;;;;;;;;;;13.69;64.03;99940.31;4848728;29;19920;-79
2024/02/24 09:49:24;;;;;;;;;;;;;;;13.71;62.37;99939.94;4861422;29;19919;-80
2024/02/24 09:52:16;;;;;;;;;;;;;;;14.13;61.52;99949.09;4860845;29;19920;-79
2024/02/24 09:55:16;;;;;;;;;;;;;;;14.27;60.48;99948.63;4848521;29;19920;-81
2024/02/24 09:58:08;;;;;;;;;;;;;;;14.46;58.92;99945.13;4850796;29;19920;-81
2024/02/24 10:01:01;;;;;;;;;;;;;;;14.69;58.82;99948.72;4864042;29;19920;-79
2024/02/24 10:03:53;;;;;;;;;;;;;;;14.57;58.45;99956.31;4851031;29;19916;-78
2024/02/24 10:06:45;;;;;;;;;;;;;;;14.41;57.23;99951.69;4846782;29;20379;-79
2024/02/24 10:09:37;;;;;;;;;;;;;;;14.26;58.55;99962.66;4861694;29;19915;-78
2024/02/24 10:12:29;;;;;;;;;;;;;;;14.30;58.07;99963.53;4851844;29;19935;-78
2024/02/24 10:15:21;;;;;;;;;;;;;;;14.10;58.75;99965.44;4849348;29;19919;-78
2024/02/24 10:18:17;;;;;;;;;;;;;;;13.93;58.63;99969.34;4860437;29;19920;-78
2024/02/24 10:21:08;;;;;;;;;;;;;;;13.61;60.24;99976.78;4863059;29;19916;-78
2024/02/24 10:24:00;;;;;;;;;;;;;;;13.26;61.32;99973.94;4848656;29;19916;-78
2024/02/24 10:26:55;;;;;;;;;;;;;;;13.77;59.53;99970.50;4846290;29;19920;-79
2024/02/24 10:29:50;;;;;;;;;;;;;;;14.29;58.62;99976.41;4863155;29;19915;-78
2024/02/24 10:32:42;;;;;;;;;;;;;;;15.30;55.65;99973.31;4847623;29;19916;-78
2024/02/24 10:35:34;;;;;;;;;;;;;;;15.09;54.92;99978.41;4863684;29;19916;-78
2024/02/24 10:38:27;;;;;;;;;;;;;;;14.43;55.41;99987.66;4861167;29;19924;-78
2024/02/24 10:41:19;;;;;;;;;;;;;;;14.30;56.76;99990.88;4843575;29;19916;-77
2024/02/24 10:44:10;;;;;;;;;;;;;;;13.73;58.20;99988.75;4847755;29;19916;-79
2024/02/24 10:47:02;;;;;;;;;;;;;;;13.66;59.00;99990.16;4860531;29;19920;-79
2024/02/24 10:49:50;;;;;;;;;;;;;;;13.53;60.06;99994.16;4850246;29;20302;-80
2024/02/24 10:52:42;;;;;;;;;;;;;;;13.87;58.12;100005.50;4852768;29;19924;-79
2024/02/24 10:55:37;;;;;;;;;;;;;;;13.79;58.92;99995.53;4848047;29;19916;-79
2024/02/24 10:58:24;;;;;;;;;;;;;;;13.26;62.10;100000.47;4862171;29;19919;-80
2024/02/24 11:01:14;;;;;;;;;;;;;;;13.20;62.76;99999.16;4856460;29;19916;-80
2024/02/24 11:04:09;;;;;;;;;;;;;;;13.16;63.59;99990.06;4856304;29;20538;-80
2024/02/24 11:07:04;;;;;;;;;;;;;;;15.17;57.03;99996.59;4861482;29;19923;-80
2024/02/24 11:09:54;;;;;;;;;;;;;;;14.71;57.66;100000.38;4848798;29;20460;-79
2024/02/24 11:12:46;;;;;;;;;;;;;;;19.72;44.42;100005.28;4846640;29;19924;-79
2024/02/24 11:15:39;;;;;;;;;;;;;;;18.70;45.16;99999.13;4861263;29;19919;-79
2024/02/24 11:18:48;;;;;;;;;;;;;;;16.40;52.88;100002.50;4848848;29;20445;-80
2024/02/24 11:22:06;;;;;;;;;;;;;;;15.47;56.35;100002.19;4842902;29;19920;-80
2024/02/24 11:25:05;;;;;;;;;;;;;;;20.50;43.02;99997.72;4845627;29;19935;-81
2024/02/24 11:27:58;;;;;;;;;;;;;;;23.47;35.97;100005.34;4855372;29;19916;-80
2024/02/24 11:30:51;;;;;;;;;;;;;;;17.95;45.99;99986.88;4845000;29;19923;-80
2024/02/24 11:33:43;;;;;;;;;;;;;;;16.02;51.26;99997.22;4848437;29;19920;-80
2024/02/24 11:36:36;;;;;;;;;;;;;;;15.05;52.98;99988.53;4863020;29;19916;-80
2024/02/24 11:39:26;;;;;;;;;;;;;;;14.82;54.21;99993.97;4848038;29;20453;-80
2024/02/24 11:42:13;;;;;;;;;;;;;;;14.52;56.17;99995.69;4857507;29;20481;-82
2024/02/24 11:45:07;;;;;;;;;;;;;;;14.46;56.74;99989.69;4843821;29;19916;-80
2024/02/24 11:47:59;;;;;;;;;;;;;;;14.45;57.08;99988.13;4855624;29;19920;-80
2024/02/24 11:50:51;;;;;;;;;;;;;;;14.44;56.85;99986.53;4862472;29;19924;-80
2024/02/24 11:53:43;;;;;;;;;;;;;;;14.44;54.83;99980.25;4863807;29;20385;-80
2024/02/24 11:56:35;;;;;;;;;;;;;;;14.58;56.77;99990.72;4849534;29;19920;-80
2024/02/24 11:59:24;;;;;;;;;;;;;;;14.52;54.94;99984.75;4862002;29;19924;-80
2024/02/24 12:02:19;;;;;;;;;;;;;;;14.60;53.50;99982.94;4860891;29;20390;-80
2024/02/24 12:05:18;;;;;;;;;;;;;;;14.82;54.20;99974.00;4850056;29;19916;-79
2024/02/24 12:08:07;;;;;;;;;;;;;;;14.99;54.33;99974.34;4860853;29;19920;-80
2024/02/24 12:10:57;;;;;;;;;;;;;;;15.07;52.96;99975.28;4844844;29;20305;-80
2024/02/24 12:13:49;;;;;;;;;;;;;;;15.18;54.67;99981.75;4862230;29;19919;-79
2024/02/24 12:16:39;;;;;;;;;;;;;;;15.09;52.75;99988.56;4861338;29;19920;-80
2024/02/24 12:19:35;;;;;;;;;;;;;;;15.05;52.46;99985.78;4863985;29;19920;-80
2024/02/24 12:22:27;;;;;;;;;;;;;;;15.02;51.67;99981.03;4861613;29;20452;-79
2024/02/24 12:25:19;;;;;;;;;;;;;;;14.99;52.49;99984.47;4846607;29;20476;-79
2024/02/24 12:28:13;;;;;;;;;;;;;;;14.96;53.49;99987.97;4843641;29;19920;-79
2024/02/24 12:31:08;;;;;;;;;;;;;;;14.97;52.93;99982.13;4847318;29;20378;-79
2024/02/24 12:33:57;;;;;;;;;;;;;;;14.84;53.70;99982.63;4838284;29;19939;-80
2024/02/24 12:36:54;;;;;;;;;;;;;;;15.05;54.43;99987.72;4858971;29;19916;-80
2024/02/24 12:39:46;;;;;;;;;;;;;;;14.94;53.27;99990.25;4863354;29;19935;-80
2024/02/24 12:42:39;;;;;;;;;;;;;;;14.85;52.32;99985.00;4873758;29;20312;-79
2024/02/24 12:45:37;;;;;;;;;;;;;;;14.72;54.05;99980.84;4864211;29;20297;-81
2024/02/24 12:48:26;;;;;;;;;;;;;;;14.64;53.52;99983.78;4861796;29;19920;-79
2024/02/24 12:51:18;;;;;;;;;;;;;;;14.60;55.20;99982.94;4864716;29;19916;-80
2024/02/24 12:54:10;;;;;;;;;;;;;;;14.72;55.35;99988.28;4857576;29;19928;-79
2024/02/24 12:57:03;;;;;;;;;;;;;;;14.57;56.08;99986.41;4872729;29;19920;-80
2024/02/24 12:59:55;;;;;;;;;;;;;;;14.68;57.52;99995.63;4850680;29;19920;-79
2024/02/24 13:02:50;;;;;;;;;;;;;;;14.77;56.64;99998.94;4854726;29;19916;-80
2024/02/24 13:05:43;;;;;;;;;;;;;;;14.92;56.71;100001.59;4865313;29;19916;-80
2024/02/24 13:08:35;;;;;;;;;;;;;;;14.89;57.11;99999.56;4856080;29;19920;-78
2024/02/24 13:11:27;;;;;;;;;;;;;;;14.79;57.97;100002.06;4844501;29;19919;-79
2024/02/24 13:14:19;;;;;;;;;;;;;;;14.82;58.80;99993.97;4860739;29;19920;-80
2024/02/24 13:17:11;;;;;;;;;;;;;;;14.93;58.75;100003.16;4857583;29;19923;-80
2024/02/24 13:20:00;;;;;;;;;;;;;;;14.71;57.78;100000.38;4845443;29;19920;-80
2024/02/24 13:22:52;;;;;;;;;;;;;;;14.87;57.44;99995.63;4855901;29;19924;-80
2024/02/24 13:25:45;;;;;;;;;;;;;;;14.81;56.76;100000.59;4853007;29;19920;-80
2024/02/24 13:28:37;;;;;;;;;;;;;;;14.62;57.56;100002.53;4859170;29;19920;-80
2024/02/24 13:31:26;;;;;;;;;;;;;;;14.62;57.87;100003.31;4847415;29;20393;-79
2024/02/24 13:34:18;;;;;;;;;;;;;;;14.64;57.08;100000.22;4854213;29;19916;-81
2024/02/24 13:37:13;;;;;;;;;;;;;;;14.60;56.34;100004.81;4864231;29;20374;-80
2024/02/24 13:40:08;;;;;;;;;;;;;;;14.59;56.88;100005.97;4862364;29;19923;-80
2024/02/24 13:43:00;;;;;;;;;;;;;;;14.53;56.86;100011.72;4849634;29;19919;-80
2024/02/24 13:45:55;;;;;;;;;;;;;;;14.63;57.56;100015.06;4863192;29;19920;-80
2024/02/24 13:48:45;;;;;;;;;;;;;;;14.58;57.31;100016.13;4853601;29;19915;-81
2024/02/24 13:51:37;;;;;;;;;;;;;;;14.63;57.97;100015.06;4851463;29;19920;-80
2024/02/24 13:54:28;;;;;;;;;;;;;;;14.53;57.75;100017.19;4858980;29;19916;-80
2024/02/24 13:57:17;;;;;;;;;;;;;;;14.38;57.13;100012.56;4860359;29;19916;-81
2024/02/24 14:00:10;;;;;;;;;;;;;;;14.35;58.37;100016.00;4861741;29;19931;-82
2024/02/24 14:03:01;;;;;;;;;;;;;;;14.25;59.89;100023.97;4857301;29;19925;-80
2024/02/24 14:05:53;;;;;;;;;;;;;;;14.24;58.69;100014.97;4851083;29;19924;-80
2024/02/24 14:08:45;;;;;;;;;;;;;;;14.17;57.63;100008.56;4861897;29;19916;-81
2024/02/24 14:11:37;;;;;;;;;;;;;;;14.07;56.31;100010.66;4853939;29;20313;-80
2024/02/24 14:14:24;;;;;;;;;;;;;;;13.99;56.77;100011.66;4862304;29;19924;-82
2024/02/24 14:17:13;;;;;;;;;;;;;;;14.02;57.92;100010.94;4862700;29;19920;-82
2024/02/24 14:20:07;;;;;;;;;;;;;;;13.98;58.49;100012.00;4853020;29;19920;-81
2024/02/24 14:22:57;;;;;;;;;;;;;;;13.89;58.41;100019.59;4859065;29;19916;-80
2024/02/24 14:25:49;;;;;;;;;;;;;;;13.85;58.18;100007.81;4847654;29;19916;-81
2024/02/24 14:28:39;;;;;;;;;;;;;;;13.87;57.49;100006.28;4864598;29;19919;-81
2024/02/24 14:31:30;;;;;;;;;;;;;;;13.86;55.99;100012.13;4849424;29;20388;-83
2024/02/24 14:34:20;;;;;;;;;;;;;;;13.95;55.36;100007.25;4858946;29;19916;-80
2024/02/24 14:37:15;;;;;;;;;;;;;;;13.94;55.58;100003.72;4878087;29;19915;-87
2024/02/24 14:40:07;;;;;;;;;;;;;;;13.88;55.85;99996.94;4853064;29;19924;-80
2024/02/24 14:42:59;;;;;;;;;;;;;;;13.90;55.33;100000.13;4835097;29;19916;-81
2024/02/24 14:45:54;;;;;;;;;;;;;;;13.91;55.76;100003.66;4856186;29;19920;-82
2024/02/24 14:48:51;;;;;;;;;;;;;;;13.89;56.30;99997.75;4861265;29;20301;-81
2024/02/24 14:51:43;;;;;;;;;;;;;;;13.92;55.88;99997.03;4845865;29;19923;-81
2024/02/24 14:54:35;;;;;;;;;;;;;;;14.00;55.39;99996.84;4862528;29;20382;-80
2024/02/24 14:57:27;;;;;;;;;;;;;;;14.04;55.38;99997.72;4861078;29;20560;-81
2024/02/24 15:00:16;;;;;;;;;;;;;;;14.04;55.50;99999.66;4862790;29;21360;-80